createdAt,value
2022-08-04T00:00:46.600Z,100209.16
2022-08-04T00:03:12.909Z,100209.78
2022-08-04T00:05:39.199Z,100205.13
2022-08-04T00:08:05.501Z,100205.09
2022-08-04T00:10:31.790Z,100206.53
2022-08-04T00:12:58.112Z,100198.34
2022-08-04T00:15:24.443Z,100206.56
2022-08-04T00:17:50.752Z,100210.16
2022-08-04T00:20:17.184Z,100207.78
2022-08-04T00:22:43.500Z,100206.28
2022-08-04T00:25:09.830Z,100211.31
2022-08-04T00:27:36.338Z,100210.63
2022-08-04T00:30:02.824Z,100214.19
2022-08-04T00:32:33.864Z,100212.31
2022-08-04T00:35:00.994Z,100206.78
2022-08-04T00:37:27.294Z,100210.81
2022-08-04T00:39:53.604Z,100208.38
2022-08-04T00:42:20.771Z,100205.03
2022-08-04T00:44:47.090Z,100214.09
2022-08-04T00:47:13.485Z,100211.09
2022-08-04T00:49:39.786Z,100212.34
2022-08-04T00:52:33.046Z,100211.69
2022-08-04T00:54:52.367Z,100212.09
2022-08-04T00:57:33.433Z,100205.13
2022-08-04T01:00:01.035Z,100210.56
2022-08-04T01:02:27.336Z,100215.59
2022-08-04T01:04:53.625Z,100210.91
2022-08-04T01:07:20.179Z,100213.25
2022-08-04T01:09:46.638Z,100210.69
2022-08-04T01:12:12.929Z,100213.44
2022-08-04T01:14:39.219Z,100208.38
2022-08-04T01:17:05.520Z,100214.25
2022-08-04T01:19:39.169Z,100214.25
2022-08-04T01:22:05.507Z,100212.31
2022-08-04T01:24:31.803Z,100210.44
2022-08-04T01:27:00.860Z,100214.91
2022-08-04T01:29:27.464Z,100212.81
2022-08-04T01:32:08.660Z,100203.94
2022-08-04T01:34:34.952Z,100213.41
2022-08-04T01:37:01.301Z,100218.41
2022-08-04T01:39:42.886Z,100219.84
2022-08-04T01:42:09.910Z,100220.66
2022-08-04T01:44:36.266Z,100219.16
2022-08-04T01:47:02.589Z,100220.00
2022-08-04T01:49:28.982Z,100214.28
2022-08-04T01:51:58.490Z,100205.41
2022-08-04T01:54:25.903Z,100208.50
2022-08-04T01:56:52.221Z,100211.19
2022-08-04T01:59:18.526Z,100204.47
2022-08-04T02:01:45.140Z,100212.28
2022-08-04T02:04:18.777Z,100204.06
2022-08-04T02:06:48.515Z,100206.88
2022-08-04T02:09:14.824Z,100204.28
2022-08-04T02:11:41.153Z,100210.59
2022-08-04T02:14:07.463Z,100198.16
2022-08-04T02:16:33.782Z,100204.47
2022-08-04T02:19:00.088Z,100210.81
2022-08-04T02:21:26.574Z,100198.94
2022-08-04T02:24:08.208Z,100209.03
2022-08-04T02:26:34.814Z,100201.09
2022-08-04T02:29:01.109Z,100200.63
2022-08-04T02:31:28.906Z,100201.63
2022-08-04T02:33:55.374Z,100194.75
2022-08-04T02:36:22.275Z,100188.69
2022-08-04T02:38:48.816Z,100194.59
2022-08-04T02:41:15.120Z,100196.56
2022-08-04T02:43:51.619Z,100196.22
2022-08-04T02:46:19.433Z,100186.47
2022-08-04T02:48:45.744Z,100194.09
2022-08-04T02:51:12.040Z,100183.81
2022-08-04T02:53:38.400Z,100185.53
2022-08-04T02:56:04.711Z,100182.31
2022-08-04T02:58:31.069Z,100182.31
2022-08-04T03:00:57.408Z,100184.22
2022-08-04T03:03:23.744Z,100181.88
2022-08-04T03:06:01.190Z,100193.47
2022-08-04T03:08:28.135Z,100175.34
2022-08-04T03:10:54.453Z,100184.13
2022-08-04T03:13:20.782Z,100195.16
2022-08-04T03:15:47.091Z,100183.66
2022-08-04T03:18:14.243Z,100181.78
2022-08-04T03:20:40.566Z,100186.09
2022-08-04T03:23:13.596Z,100189.22
2022-08-04T03:25:57.100Z,100192.41
2022-08-04T03:28:23.954Z,100189.69
2022-08-04T03:30:50.273Z,100185.88
2022-08-04T03:33:16.614Z,100194.75
2022-08-04T03:35:42.922Z,100197.63
2022-08-04T03:38:09.249Z,100192.34
2022-08-04T03:40:36.304Z,100189.22
2022-08-04T03:43:02.618Z,100198.06
2022-08-04T03:45:28.916Z,100190.75
2022-08-04T03:47:55.238Z,100196.47
2022-08-04T03:50:21.526Z,100192.91
2022-08-04T03:53:06.530Z,100194.41
2022-08-04T03:55:32.824Z,100197.78
2022-08-04T03:57:59.120Z,100193.34
2022-08-04T04:00:25.427Z,100194.84
2022-08-04T04:02:51.797Z,100192.31
2022-08-04T04:05:18.150Z,100202.88
2022-08-04T04:07:47.462Z,100200.41
2022-08-04T04:10:26.747Z,100198.91
2022-08-04T04:12:55.284Z,100195.63
2022-08-04T04:15:21.590Z,100197.38
2022-08-04T04:17:50.362Z,100204.00
2022-08-04T04:20:16.684Z,100200.41
2022-08-04T04:22:42.989Z,100196.84
2022-08-04T04:25:09.317Z,100199.47
2022-08-04T04:27:35.631Z,100207.53
2022-08-04T04:30:01.970Z,100204.03
2022-08-04T04:32:28.960Z,100205.13
2022-08-04T04:34:55.267Z,100207.09
2022-08-04T04:37:22.347Z,100208.41
2022-08-04T04:39:48.946Z,100209.81
2022-08-04T04:42:15.235Z,100215.75
2022-08-04T04:44:42.058Z,100212.09
2022-08-04T04:47:08.372Z,100214.28
2022-08-04T04:49:34.701Z,100208.06
2022-08-04T04:52:01.273Z,100218.22
2022-08-04T04:54:27.600Z,100210.28
2022-08-04T04:56:53.888Z,100214.78
2022-08-04T04:59:20.203Z,100223.16
2022-08-04T05:01:46.935Z,100225.53
2022-08-04T05:04:13.271Z,100226.66
2022-08-04T05:06:39.569Z,100219.47
2022-08-04T05:09:05.892Z,100223.16
2022-08-04T05:11:32.201Z,100229.94
2022-08-04T05:14:36.570Z,100223.03
2022-08-04T05:16:44.816Z,100226.81
2022-08-04T05:19:11.116Z,100221.16
2022-08-04T05:21:37.406Z,100216.31
2022-08-04T05:24:03.724Z,100211.66
2022-08-04T05:26:30.103Z,100211.03
2022-08-04T05:28:56.415Z,100213.34
2022-08-04T05:31:22.708Z,100214.41
2022-08-04T05:33:49.004Z,100219.69
2022-08-04T05:36:23.559Z,100212.53
2022-08-04T05:38:53.897Z,100218.44
2022-08-04T05:41:20.231Z,100222.66
2022-08-04T05:43:46.548Z,100222.06
2022-08-04T05:46:12.868Z,100209.53
2022-08-04T05:48:39.151Z,100210.00
2022-08-04T05:51:05.443Z,100218.19
2022-08-04T05:53:31.732Z,100225.34
2022-08-04T05:55:59.092Z,100220.06
2022-08-04T05:58:26.195Z,100211.78
2022-08-04T06:00:52.674Z,100217.97
2022-08-04T06:03:19.084Z,100219.19
2022-08-04T06:05:45.464Z,100211.97
2022-08-04T06:08:13.488Z,100216.63
2022-08-04T06:10:40.294Z,100208.19
2022-08-04T06:13:06.585Z,100220.84
2022-08-04T06:15:32.996Z,100213.88
2022-08-04T06:19:56.368Z,100224.41
2022-08-04T06:20:50.024Z,100222.47
2022-08-04T06:23:17.308Z,100223.06
2022-08-04T06:25:43.601Z,100217.25
2022-08-04T06:28:09.915Z,100223.59
2022-08-04T06:30:37.129Z,100221.34
2022-08-04T06:33:13.476Z,100222.75
2022-08-04T06:35:39.770Z,100221.72
2022-08-04T06:38:06.056Z,100226.63
2022-08-04T06:40:34.043Z,100230.19
2022-08-04T06:43:00.777Z,100228.66
2022-08-04T06:45:27.077Z,100223.81
2022-08-04T06:47:53.412Z,100230.41
2022-08-04T06:51:24.862Z,100227.44
2022-08-04T06:53:06.048Z,100226.03
2022-08-04T06:55:32.364Z,100227.94
2022-08-04T06:58:02.872Z,100220.91
2022-08-04T07:00:29.839Z,100213.84
2022-08-04T07:02:56.136Z,100217.91
2022-08-04T07:05:22.455Z,100216.34
2022-08-04T07:07:57.697Z,100221.13
2022-08-04T07:10:24.958Z,100215.34
2022-08-04T07:12:51.374Z,100213.91
2022-08-04T07:15:20.246Z,100218.81
2022-08-04T07:17:46.549Z,100214.06
2022-08-04T07:20:16.566Z,100216.44
2022-08-04T07:23:01.837Z,100212.06
2022-08-04T07:25:58.744Z,100206.72
2022-08-04T07:28:14.381Z,100207.28
2022-08-04T07:30:40.670Z,100211.84
2022-08-04T07:33:06.949Z,100199.22
2022-08-04T07:36:09.295Z,100203.69
2022-08-04T07:38:19.484Z,100197.31
2022-08-04T07:40:53.926Z,100206.56
2022-08-04T07:43:20.227Z,100200.09
2022-08-04T07:45:46.526Z,100202.03
2022-08-04T07:48:12.921Z,100202.03
2022-08-04T07:50:39.238Z,100207.28
2022-08-04T07:53:53.369Z,100202.34
2022-08-04T07:55:51.993Z,100187.97
2022-08-04T07:58:18.333Z,100192.00
2022-08-04T08:00:44.615Z,100187.69
2022-08-04T08:03:10.953Z,100181.97
2022-08-04T08:06:16.594Z,100174.44
2022-08-04T08:08:23.616Z,100189.44
2022-08-04T08:10:49.926Z,100181.91
2022-08-04T08:13:16.253Z,100183.75
2022-08-04T08:15:42.542Z,100186.94
2022-08-04T08:18:08.864Z,100183.25
2022-08-04T08:20:35.163Z,100169.19
2022-08-04T08:23:01.461Z,100171.28
2022-08-04T08:25:27.759Z,100166.44
2022-08-04T08:27:55.915Z,100164.59
2022-08-04T08:30:23.842Z,100166.84
2022-08-04T08:32:50.150Z,100163.06
2022-08-04T08:35:16.451Z,100163.69
2022-08-04T08:37:42.730Z,100168.84
2022-08-04T08:40:09.027Z,100168.47
2022-08-04T08:42:35.310Z,100165.88
2022-08-04T08:45:01.610Z,100162.28
2022-08-04T08:47:29.343Z,100161.84
2022-08-04T08:50:02.462Z,100154.66
2022-08-04T08:53:02.318Z,100155.16
2022-08-04T08:55:17.219Z,100167.50
2022-08-04T08:57:59.748Z,100157.53
2022-08-04T09:00:31.998Z,100158.34
2022-08-04T09:03:04.658Z,100157.72
2022-08-04T09:05:31.700Z,100159.72
2022-08-04T09:07:58.331Z,100155.22
2022-08-04T09:10:24.640Z,100152.81
2022-08-04T09:12:51.638Z,100150.81
2022-08-04T09:15:17.962Z,100156.50
2022-08-04T09:17:44.266Z,100154.94
2022-08-04T09:20:10.579Z,100154.66
2022-08-04T09:22:36.807Z,100153.00
2022-08-04T09:25:04.729Z,100141.03
2022-08-04T09:27:31.070Z,100146.22
2022-08-04T09:29:57.366Z,100139.06
2022-08-04T09:32:23.603Z,100141.69
2022-08-04T09:35:03.564Z,100146.56
2022-08-04T09:37:34.799Z,100131.56
2022-08-04T09:40:14.763Z,100137.59
2022-08-04T09:42:58.267Z,100140.47
2022-08-04T09:45:26.572Z,100134.34
2022-08-04T09:47:53.182Z,100129.75
2022-08-04T09:50:19.732Z,100135.00
2022-08-04T09:52:46.348Z,100122.22
2022-08-04T09:55:12.896Z,100127.44
2022-08-04T09:57:39.190Z,100127.75
2022-08-04T10:00:05.470Z,100126.97
2022-08-04T10:02:31.794Z,100125.22
2022-08-04T10:04:58.182Z,100121.03
2022-08-04T10:07:24.661Z,100114.97
2022-08-04T10:09:50.989Z,100114.69
2022-08-04T10:12:17.851Z,100118.56
2022-08-04T10:14:44.153Z,100106.97
2022-08-04T10:17:12.977Z,100116.13
2022-08-04T10:19:39.224Z,100115.34
2022-08-04T10:22:29.282Z,100105.50
2022-08-04T10:24:52.655Z,100096.66
2022-08-04T10:27:18.910Z,100105.03
2022-08-04T10:29:45.269Z,100103.38
2022-08-04T10:32:11.496Z,100107.56
2022-08-04T10:34:37.800Z,100103.09
2022-08-04T10:37:04.884Z,100095.25
2022-08-04T10:39:43.519Z,100090.25
2022-08-04T10:42:10.621Z,100093.34
2022-08-04T10:44:42.564Z,100078.50
2022-08-04T10:47:09.024Z,100076.53
2022-08-04T10:49:35.422Z,100080.53
2022-08-04T10:52:01.740Z,100085.72
2022-08-04T10:54:29.885Z,100083.84
2022-08-04T10:56:57.019Z,100084.66
2022-08-04T10:59:23.303Z,100084.06
2022-08-04T11:02:01.650Z,100074.31
2022-08-04T11:04:30.472Z,100070.66
2022-08-04T11:06:56.809Z,100071.84
2022-08-04T11:09:23.066Z,100065.97
2022-08-04T11:12:00.507Z,100061.25
2022-08-04T11:14:28.459Z,100071.84
2022-08-04T11:16:54.745Z,100064.88
2022-08-04T11:19:22.656Z,100066.56
2022-08-04T11:22:08.947Z,100083.00
2022-08-04T11:24:35.175Z,100072.09
2022-08-04T11:27:01.418Z,100065.06
2022-08-04T11:29:27.697Z,100066.53
2022-08-04T11:31:54.144Z,100067.56
2022-08-04T11:34:20.808Z,100059.22
2022-08-04T11:36:47.144Z,100063.84
2022-08-04T11:39:13.548Z,100070.03
2022-08-04T11:41:40.042Z,100061.16
2022-08-04T11:44:11.884Z,100064.19
2022-08-04T11:46:38.940Z,100060.06
2022-08-04T11:49:05.171Z,100068.41
2022-08-04T11:51:31.406Z,100054.16
2022-08-04T11:53:57.628Z,100065.38
2022-08-04T11:56:36.807Z,100061.75
2022-08-04T11:59:04.507Z,100072.09
2022-08-04T12:01:30.754Z,100060.91
2022-08-04T12:03:59.735Z,100062.50
2022-08-04T12:06:30.721Z,100062.56
2022-08-04T12:08:56.988Z,100051.63
2022-08-04T12:11:23.291Z,100051.13
2022-08-04T12:13:49.617Z,100047.78
2022-08-04T12:16:15.918Z,100049.38
2022-08-04T12:18:42.310Z,100046.00
2022-08-04T12:21:09.766Z,100051.94
2022-08-04T12:23:36.818Z,100039.38
2022-08-04T12:26:03.060Z,100042.59
2022-08-04T12:28:41.379Z,100037.16
2022-08-04T12:31:15.585Z,100034.84
2022-08-04T12:34:04.547Z,100025.16
2022-08-04T12:36:28.218Z,100037.00
2022-08-04T12:38:54.494Z,100035.84
2022-08-04T12:41:21.284Z,100033.56
2022-08-04T12:43:49.618Z,100035.59
2022-08-04T12:46:15.955Z,100032.88
2022-08-04T12:48:42.193Z,100024.72
2022-08-04T12:51:31.120Z,100029.63
2022-08-04T12:53:55.103Z,100024.47
2022-08-04T12:56:21.354Z,100019.38
2022-08-04T12:58:47.627Z,100016.72
2022-08-04T13:02:09.235Z,100018.91
2022-08-04T13:04:02.095Z,100024.94
2022-08-04T13:06:28.416Z,100016.34
2022-08-04T13:08:54.653Z,100010.84
2022-08-04T13:11:20.907Z,100000.19
2022-08-04T13:13:56.704Z,99995.75
2022-08-04T13:16:31.623Z,100004.97
2022-08-04T13:18:58.066Z,100001.00
2022-08-04T13:24:22.759Z,99994.44
2022-08-04T13:27:03.517Z,99990.97
2022-08-04T13:29:59.695Z,99987.00
2022-08-04T13:30:24.153Z,99993.75
2022-08-04T13:32:16.622Z,99984.09
2022-08-04T13:34:49.446Z,99994.38
2022-08-04T13:37:20.791Z,99979.59
2022-08-04T13:39:55.414Z,99984.38
2022-08-04T13:42:22.570Z,99988.25
2022-08-04T13:44:48.978Z,99981.34
2022-08-04T13:47:15.337Z,99979.66
2022-08-04T13:50:00.839Z,99987.13
2022-08-04T13:52:27.992Z,99982.84
2022-08-04T13:54:54.288Z,99978.19
2022-08-04T13:57:20.997Z,99975.56
2022-08-04T13:59:47.402Z,99973.38
2022-08-04T14:02:13.630Z,99968.63
2022-08-04T14:04:39.863Z,99959.28
2022-08-04T14:07:06.096Z,99957.06
2022-08-04T14:10:02.533Z,99966.03
2022-08-04T14:12:38.186Z,99960.94
2022-08-04T14:15:05.504Z,99952.09
2022-08-04T14:17:31.863Z,99959.59
2022-08-04T14:19:58.579Z,99943.25
2022-08-04T14:22:24.924Z,99954.41
2022-08-04T14:24:51.254Z,99947.13
2022-08-04T14:27:17.566Z,99942.88
2022-08-04T14:29:43.798Z,99949.34
2022-08-04T14:32:14.191Z,99948.16
2022-08-04T14:34:41.352Z,99939.06
2022-08-04T14:37:17.605Z,99936.97
2022-08-04T14:40:17.919Z,99936.06
2022-08-04T14:42:33.618Z,99932.56
2022-08-04T14:45:00.988Z,99942.25
2022-08-04T14:47:27.287Z,99938.50
2022-08-04T14:49:53.523Z,99932.81
2022-08-04T14:52:19.757Z,99937.25
2022-08-04T14:54:45.986Z,99929.13
2022-08-04T14:57:12.224Z,99933.09
2022-08-04T14:59:38.475Z,99932.47
2022-08-04T15:02:04.753Z,99934.06
2022-08-04T15:04:31.579Z,99932.47
2022-08-04T15:06:57.986Z,99924.75
2022-08-04T15:09:24.348Z,99918.63
2022-08-04T15:11:50.642Z,99917.75
2022-08-04T15:14:36.449Z,99923.25
2022-08-04T15:17:04.026Z,99923.00
2022-08-04T15:19:33.559Z,99918.13
2022-08-04T15:22:00.034Z,99918.22
2022-08-04T15:24:26.275Z,99917.41
2022-08-04T15:26:52.510Z,99910.91
2022-08-04T15:29:18.744Z,99911.69
2022-08-04T15:32:06.266Z,99909.22
2022-08-04T15:34:31.255Z,99907.22
2022-08-04T15:36:57.945Z,99908.63
2022-08-04T15:39:24.394Z,99903.81
2022-08-04T15:41:55.143Z,99911.31
2022-08-04T15:44:21.980Z,99909.91
2022-08-04T15:46:49.307Z,99911.78
2022-08-04T15:49:15.637Z,99910.41
2022-08-04T15:51:41.884Z,99910.44
2022-08-04T15:54:08.740Z,99898.16
2022-08-04T15:57:01.132Z,99904.34
2022-08-04T15:59:28.158Z,99903.03
2022-08-04T16:02:11.507Z,99899.69
2022-08-04T16:04:38.350Z,99895.22
2022-08-04T16:07:05.212Z,99893.53
2022-08-04T16:09:45.102Z,99902.75
2022-08-04T16:12:13.762Z,99898.88
2022-08-04T16:14:40.224Z,99892.72
2022-08-04T16:17:06.466Z,99893.28
2022-08-04T16:19:35.911Z,99897.19
2022-08-04T16:22:05.341Z,99898.34
2022-08-04T16:24:31.684Z,99890.00
2022-08-04T16:26:57.971Z,99889.72
2022-08-04T16:29:24.222Z,99892.22
2022-08-04T16:31:50.476Z,99893.88
2022-08-04T16:34:50.283Z,99893.91
2022-08-04T16:37:03.041Z,99894.16
2022-08-04T16:39:29.409Z,99894.47
2022-08-04T16:42:15.584Z,99897.25
2022-08-04T16:44:57.439Z,99891.13
2022-08-04T16:47:23.777Z,99894.19
2022-08-04T16:49:51.886Z,99897.56
2022-08-04T16:52:18.450Z,99893.09
2022-08-04T16:54:44.680Z,99878.59
2022-08-04T16:57:10.988Z,99882.22
2022-08-04T16:59:37.219Z,99880.56
2022-08-04T17:02:03.516Z,99881.69
2022-08-04T17:04:29.807Z,99884.22
2022-08-04T17:06:56.090Z,99884.47
2022-08-04T17:09:26.813Z,99881.16
2022-08-04T17:11:54.883Z,99878.34
2022-08-04T17:14:21.111Z,99886.72
2022-08-04T17:16:47.438Z,99885.34
2022-08-04T17:19:19.871Z,99882.53
2022-08-04T17:21:46.911Z,99883.66
2022-08-04T17:24:17.812Z,99878.66
2022-08-04T17:26:51.618Z,99877.81
2022-08-04T17:29:20.254Z,99877.81
2022-08-04T17:31:46.713Z,99874.16
2022-08-04T17:34:15.727Z,99875.53
2022-08-04T17:36:43.784Z,99878.31
2022-08-04T17:39:14.737Z,99878.91
2022-08-04T17:41:42.941Z,99886.13
2022-08-04T17:44:15.650Z,99872.47
2022-08-04T17:46:41.979Z,99882.50
2022-08-04T17:49:09.754Z,99882.75
2022-08-04T17:52:04.247Z,99890.28
2022-08-04T17:54:29.778Z,99885.81
2022-08-04T17:57:02.877Z,99878.03
2022-08-04T17:59:57.192Z,99877.16
2022-08-04T18:02:18.512Z,99879.91
2022-08-04T18:05:06.285Z,99884.34
2022-08-04T18:08:34.923Z,99888.78
2022-08-04T18:10:31.021Z,99886.28
2022-08-04T18:13:02.234Z,99890.97
2022-08-04T18:15:40.560Z,99894.84
2022-08-04T18:18:21.925Z,99888.69
2022-08-04T18:20:50.230Z,99889.25
2022-08-04T18:23:17.000Z,99894.19
2022-08-04T18:25:51.522Z,99896.97
2022-08-04T18:28:26.529Z,99891.38
2022-08-04T18:30:55.221Z,99903.03
2022-08-04T18:33:37.615Z,99899.38
2022-08-04T18:36:32.978Z,99894.63
2022-08-04T18:38:55.791Z,99901.84
2022-08-04T18:41:24.717Z,99904.00
2022-08-04T18:43:55.796Z,99904.56
2022-08-04T18:46:23.000Z,99901.97
2022-08-04T18:48:53.346Z,99913.00
2022-08-04T18:51:24.243Z,99915.47
2022-08-04T18:53:58.604Z,99916.84
2022-08-04T18:56:29.650Z,99919.53
2022-08-04T18:58:59.966Z,99918.09
2022-08-04T19:01:30.069Z,99924.13
2022-08-04T19:04:33.786Z,99929.66
2022-08-04T19:06:59.113Z,99929.66
2022-08-04T19:09:52.359Z,99932.66
2022-08-04T19:12:27.146Z,99925.44
2022-08-04T19:14:58.224Z,99932.31
2022-08-04T19:17:53.583Z,99933.38
2022-08-04T19:20:15.747Z,99945.75
2022-08-04T19:24:27.717Z,99934.31
2022-08-04T19:25:58.953Z,99937.09
2022-08-04T19:28:23.921Z,99934.56
2022-08-04T19:30:54.780Z,99943.09
2022-08-04T19:33:24.965Z,99938.00
2022-08-04T19:35:51.706Z,99930.72
2022-08-04T19:38:18.891Z,99940.09
2022-08-04T19:40:52.686Z,99935.28
2022-08-04T19:43:20.702Z,99938.84
2022-08-04T19:45:49.261Z,99936.00
2022-08-04T19:48:19.584Z,99941.22
2022-08-04T19:50:46.230Z,99933.34
2022-08-04T19:53:18.766Z,99934.41
2022-08-04T19:55:49.826Z,99940.63
2022-08-04T19:58:16.533Z,99942.81
2022-08-04T20:00:50.895Z,99931.84
2022-08-04T20:03:20.208Z,99938.13
2022-08-04T20:05:54.455Z,99945.78
2022-08-04T20:08:23.637Z,99942.78
2022-08-04T20:10:51.658Z,99942.38
2022-08-04T20:13:18.439Z,99941.88
2022-08-04T20:15:55.536Z,99944.81
2022-08-04T20:18:35.720Z,99938.59
2022-08-04T20:21:03.409Z,99936.31
2022-08-04T20:23:47.861Z,99940.19
2022-08-04T20:26:16.195Z,99944.69
2022-08-04T20:28:42.502Z,99938.25
2022-08-04T20:31:12.294Z,99943.66
2022-08-04T20:33:49.377Z,99943.44
2022-08-04T20:36:21.267Z,99938.13
2022-08-04T20:38:51.908Z,99937.22
2022-08-04T20:41:19.187Z,99937.81
2022-08-04T20:43:49.573Z,99942.50
2022-08-04T20:46:18.054Z,99944.34
2022-08-04T20:48:51.909Z,99941.72
2022-08-04T20:51:19.926Z,99938.19
2022-08-04T20:53:57.761Z,99939.41
2022-08-04T20:56:31.038Z,99940.75
2022-08-04T20:58:57.915Z,99944.25
2022-08-04T21:01:27.121Z,99938.72
2022-08-04T21:04:15.230Z,99940.44
2022-08-04T21:06:54.837Z,99942.47
2022-08-04T21:09:37.599Z,99941.88
2022-08-04T21:12:07.920Z,99942.72
2022-08-04T21:14:34.204Z,99943.00
2022-08-04T21:17:03.815Z,99936.69
2022-08-04T21:19:31.528Z,99940.19
2022-08-04T21:21:57.948Z,99942.72
2022-08-04T21:24:26.188Z,99941.19
2022-08-04T21:26:56.366Z,99942.50
2022-08-04T21:29:23.246Z,99951.75
2022-08-04T21:31:50.922Z,99941.31
2022-08-04T21:34:39.260Z,99942.63
2022-08-04T21:37:05.920Z,99940.13
2022-08-04T21:39:32.709Z,99939.66
2022-08-04T21:42:29.800Z,99943.25
2022-08-04T21:44:45.407Z,99936.91
2022-08-04T21:47:23.418Z,99932.94
2022-08-04T21:52:36.349Z,99937.78
2022-08-04T21:55:02.780Z,99938.50
2022-08-04T21:57:29.956Z,99931.09
2022-08-04T21:59:58.560Z,99941.28
2022-08-04T22:02:26.275Z,99943.41
2022-08-04T22:04:52.988Z,99938.38
2022-08-04T22:07:19.219Z,99946.88
2022-08-04T22:10:00.295Z,99938.97
2022-08-04T22:12:30.112Z,99939.50
2022-08-04T22:14:59.312Z,99940.75
2022-08-04T22:17:26.247Z,99944.91
2022-08-04T22:20:02.010Z,99934.41
2022-08-04T22:22:29.604Z,99933.09
2022-08-04T22:24:58.401Z,99932.13
2022-08-04T22:27:43.832Z,99935.47
2022-08-04T22:30:17.805Z,99933.34
2022-08-04T22:32:44.369Z,99934.56
2022-08-04T22:35:36.266Z,99936.41
2022-08-04T22:38:05.716Z,99918.09
2022-08-04T22:40:34.248Z,99931.13
2022-08-04T22:43:02.924Z,99932.59
2022-08-04T22:45:44.576Z,99927.50
2022-08-04T22:48:11.347Z,99925.59
2022-08-04T22:50:37.628Z,99922.06
2022-08-04T22:53:03.921Z,99927.72
2022-08-04T22:56:07.692Z,99926.28
2022-08-04T22:58:17.618Z,99927.44
2022-08-04T23:00:52.028Z,99931.19
2022-08-04T23:03:36.939Z,99921.84
2022-08-04T23:06:04.611Z,99927.13
2022-08-04T23:08:31.070Z,99921.63
2022-08-04T23:11:03.571Z,99919.22
2022-08-04T23:13:31.718Z,99917.34
2022-08-04T23:15:58.113Z,99919.22
2022-08-04T23:18:24.423Z,99922.25
2022-08-04T23:20:53.142Z,99918.03
2022-08-04T23:23:20.134Z,99924.38
2022-08-04T23:26:07.109Z,99917.41
2022-08-04T23:28:32.715Z,99925.28
2022-08-04T23:30:59.010Z,99920.25
2022-08-04T23:33:50.652Z,99914.75
2022-08-04T23:36:11.845Z,99910.13
2022-08-04T23:38:38.282Z,99916.34
2022-08-04T23:41:05.624Z,99913.81
2022-08-04T23:43:38.731Z,99914.88
2022-08-04T23:46:19.457Z,99911.53
2022-08-04T23:48:47.245Z,99907.78
2022-08-04T23:51:15.700Z,99907.16
2022-08-04T23:54:03.166Z,99901.88
2022-08-04T23:56:32.357Z,99908.91
2022-08-04T23:58:58.663Z,99902.16
